Time;durP1;ratioP1;P1;durP2;ratioP2;P2;SDS_P1;SDS_P2;PMS_P1;PMS_P2;Temp;Humidity;BMP_temperature;BMP_pressure;BME280_temperature;BME280_humidity;BME280_pressure;Samples;Min_cycle;Max_cycle;Signal;HPM_P1;HPM_P2
2021/01/28 00:00:47;;;;;;;17.58;11.40;;;;;;;4.13;87.55;98612.75;4933634;28;20314;-79
2021/01/28 00:03:14;;;;;;;16.17;10.75;;;;;;;4.14;87.51;98614.47;4955048;28;20240;-80
2021/01/28 00:05:43;;;;;;;17.58;11.15;;;;;;;4.19;86.95;98612.47;4941985;28;20307;-80
2021/01/28 00:08:11;;;;;;;16.80;11.40;;;;;;;4.12;86.90;98605.69;4956343;29;20235;-79
2021/01/28 00:10:37;;;;;;;19.25;11.40;;;;;;;4.06;87.39;98603.34;4954611;28;20327;-79
2021/01/28 00:13:05;;;;;;;17.30;12.18;;;;;;;4.07;87.86;98605.06;4922534;29;20232;-80
2021/01/28 00:15:33;;;;;;;19.65;11.82;;;;;;;4.01;87.92;98592.06;4950919;28;20224;-79
2021/01/28 00:18:02;;;;;;;21.58;11.77;;;;;;;4.14;87.69;98587.00;4925636;29;20579;-80
2021/01/28 00:20:38;;;;;;;18.73;12.38;;;;;;;4.04;87.83;98581.25;4933870;28;20196;-79
2021/01/28 00:23:05;;;;;;;18.73;11.55;;;;;;;4.06;87.64;98573.22;4952585;29;20196;-79
2021/01/28 00:25:33;;;;;;;21.00;12.30;;;;;;;3.95;88.13;98572.84;4982881;28;20259;-80
2021/01/28 00:27:59;;;;;;;19.35;11.77;;;;;;;4.09;88.23;98565.94;4952995;28;20266;-80
2021/01/28 00:30:35;;;;;;;20.65;12.13;;;;;;;4.04;88.37;98559.97;4936096;28;20235;-80
2021/01/28 00:33:02;;;;;;;16.30;10.77;;;;;;;4.08;88.32;98560.69;4931014;28;20232;-80
2021/01/28 00:35:34;;;;;;;20.45;12.00;;;;;;;4.25;87.61;98566.06;4928547;28;20227;-79
2021/01/28 00:38:01;;;;;;;17.73;10.88;;;;;;;4.19;87.65;98559.25;4928425;28;20738;-80
2021/01/28 00:40:30;;;;;;;18.20;12.15;;;;;;;4.19;87.51;98545.94;4950673;28;20220;-80
2021/01/28 00:42:56;;;;;;;20.77;11.88;;;;;;;4.31;87.39;98539.13;4967333;28;20240;-81
2021/01/28 00:45:26;;;;;;;16.10;10.13;;;;;;;4.20;87.05;98546.78;4979477;28;20232;-81
2021/01/28 00:47:57;;;;;;;17.83;11.05;;;;;;;4.03;87.69;98544.97;4975745;28;20234;-81
2021/01/28 00:50:27;;;;;;;16.10;10.57;;;;;;;4.00;87.92;98549.56;4937751;28;20239;-80
2021/01/28 00:52:53;;;;;;;16.80;10.48;;;;;;;4.00;87.63;98555.75;4929989;29;20219;-80
2021/01/28 00:55:21;;;;;;;15.75;9.82;;;;;;;4.01;88.07;98540.63;4954835;28;20219;-80
2021/01/28 00:57:52;;;;;;;13.98;9.77;;;;;;;4.04;87.53;98546.66;4932975;28;20216;-80
2021/01/28 01:00:21;;;;;;;16.48;9.70;;;;;;;4.14;87.64;98552.41;4949934;28;20236;-80
2021/01/28 01:02:47;;;;;;;14.68;9.10;;;;;;;4.17;87.00;98550.47;4930149;28;20691;-80
2021/01/28 01:05:16;;;;;;;15.55;10.35;;;;;;;4.18;86.88;98546.84;4962298;28;20247;-80
2021/01/28 01:07:44;;;;;;;18.48;10.43;;;;;;;4.22;86.96;98544.91;4945115;28;20220;-79
2021/01/28 01:10:34;;;;;;;14.30;9.00;;;;;;;4.10;86.66;98541.06;4905284;28;20228;-80
2021/01/28 01:13:00;;;;;;;14.50;10.02;;;;;;;4.25;86.71;98528.81;4923010;28;20227;-80
2021/01/28 01:15:27;;;;;;;16.85;10.85;;;;;;;4.30;86.74;98543.59;4961589;28;20239;-80
2021/01/28 01:17:53;;;;;;;15.55;10.38;;;;;;;4.21;86.58;98533.41;4939515;28;20231;-80
2021/01/28 01:20:26;;;;;;;15.13;10.18;;;;;;;4.01;87.46;98530.88;4967027;28;20227;-79
2021/01/28 01:22:53;;;;;;;15.98;9.85;;;;;;;3.98;87.96;98523.03;4974770;28;20647;-80
2021/01/28 01:25:20;;;;;;;17.67;10.65;;;;;;;4.01;88.18;98517.59;4936968;28;20239;-79
2021/01/28 01:27:47;;;;;;;16.98;10.70;;;;;;;4.04;88.14;98508.59;4941503;28;20229;-80
2021/01/28 01:30:33;;;;;;;18.60;11.82;;;;;;;4.07;87.92;98506.63;4939891;28;20231;-80
2021/01/28 01:32:59;;;;;;;17.42;11.20;;;;;;;4.12;88.26;98501.94;4950632;28;20254;-80
2021/01/28 01:35:34;;;;;;;19.42;12.52;;;;;;;4.17;87.68;98501.72;4972906;28;20227;-80
2021/01/28 01:38:04;;;;;;;15.40;11.27;;;;;;;4.40;86.60;98483.66;4987754;28;20211;-80
2021/01/28 01:40:38;;;;;;;13.75;9.10;;;;;;;4.39;86.10;98489.91;4939498;28;20239;-80
2021/01/28 01:43:06;;;;;;;15.65;11.02;;;;;;;4.33;86.21;98490.22;4930377;28;20220;-80
2021/01/28 01:45:41;;;;;;;15.35;9.77;;;;;;;4.37;86.19;98486.44;4952151;28;20231;-79
2021/01/28 01:48:15;;;;;;;16.02;10.43;;;;;;;4.31;86.53;98485.91;4936028;28;20286;-80
2021/01/28 01:51:05;;;;;;;16.55;9.90;;;;;;;4.28;86.57;98486.06;4938247;28;20187;-80
2021/01/28 01:53:47;;;;;;;12.75;9.40;;;;;;;4.34;86.73;98480.41;4960068;28;20212;-79
2021/01/28 01:56:44;;;;;;;15.50;9.80;;;;;;;4.34;86.51;98470.66;4950890;29;20272;-80
2021/01/28 01:59:17;;;;;;;14.63;8.90;;;;;;;4.29;86.73;98475.34;4954545;28;20303;-80
2021/01/28 02:02:00;;;;;;;16.88;10.82;;;;;;;4.28;86.34;98457.66;4952921;29;20232;-80
2021/01/28 02:04:57;;;;;;;14.68;10.30;;;;;;;4.31;86.32;98451.31;4961439;28;20259;-80
2021/01/28 02:07:42;;;;;;;13.52;9.02;;;;;;;4.29;86.40;98447.91;4952532;28;20226;-80
2021/01/28 02:10:26;;;;;;;13.07;8.77;;;;;;;4.27;86.89;98437.31;4946132;28;20834;-80
2021/01/28 02:13:11;;;;;;;14.50;8.52;;;;;;;4.26;87.17;98434.72;4953667;28;20234;-80
2021/01/28 02:15:44;;;;;;;14.00;9.30;;;;;;;4.18;87.57;98423.63;4955242;28;20615;-80
2021/01/28 02:18:10;;;;;;;13.50;9.27;;;;;;;4.26;87.92;98419.63;4937266;28;20323;-80
2021/01/28 02:21:03;;;;;;;11.02;7.60;;;;;;;4.27;88.17;98418.69;4939756;28;20278;-80
2021/01/28 02:23:46;;;;;;;13.38;9.10;;;;;;;4.42;87.22;98409.91;4954228;28;20298;-79
2021/01/28 02:26:25;;;;;;;11.50;8.15;;;;;;;4.45;87.51;98407.09;4937188;28;20197;-80
2021/01/28 02:28:52;;;;;;;9.93;6.97;;;;;;;4.42;86.05;98393.94;4954542;28;20252;-80
2021/01/28 02:31:19;;;;;;;9.80;7.43;;;;;;;4.40;86.83;98389.63;4948643;28;20308;-80
2021/01/28 02:33:50;;;;;;;11.38;7.53;;;;;;;4.44;86.34;98378.72;4937119;28;20235;-79
2021/01/28 02:36:47;;;;;;;11.02;7.70;;;;;;;4.57;85.75;98376.28;4969621;28;20228;-80
2021/01/28 02:39:45;;;;;;;9.35;7.13;;;;;;;4.67;85.85;98383.69;4958028;28;20231;-79
2021/01/28 02:42:23;;;;;;;12.32;7.43;;;;;;;4.49;85.94;98370.53;4949120;28;20224;-80
2021/01/28 02:44:58;;;;;;;8.35;6.95;;;;;;;4.49;86.59;98374.03;4938432;28;20721;-81
2021/01/28 02:47:42;;;;;;;7.85;5.72;;;;;;;4.56;86.26;98374.56;4951667;28;20269;-80
2021/01/28 02:50:21;;;;;;;9.10;6.75;;;;;;;4.70;85.37;98370.22;4933350;29;20217;-80
2021/01/28 02:52:53;;;;;;;8.50;6.60;;;;;;;4.55;85.79;98378.19;4935404;29;20284;-80
2021/01/28 02:55:22;;;;;;;9.23;7.03;;;;;;;4.59;85.92;98371.72;4956262;28;20227;-80
2021/01/28 02:57:48;;;;;;;6.85;5.80;;;;;;;4.61;85.43;98368.06;4947834;28;20227;-80
2021/01/28 03:00:35;;;;;;;7.78;6.53;;;;;;;4.50;85.65;98369.56;4952893;28;20232;-80
2021/01/28 03:03:06;;;;;;;8.60;5.97;;;;;;;4.71;85.66;98352.44;4947789;28;20231;-80
2021/01/28 03:05:51;;;;;;;6.38;4.60;;;;;;;4.68;84.71;98348.13;4938222;28;20255;-79
2021/01/28 03:08:20;;;;;;;6.95;5.47;;;;;;;4.61;85.32;98352.06;4949752;29;20221;-79
2021/01/28 03:10:55;;;;;;;6.63;5.45;;;;;;;4.67;85.55;98341.09;4923515;29;20684;-79
2021/01/28 03:13:23;;;;;;;7.28;5.10;;;;;;;4.63;85.52;98323.56;4938838;29;20283;-79
2021/01/28 03:15:58;;;;;;;6.28;4.70;;;;;;;4.91;84.39;98320.22;4944140;28;20239;-79
2021/01/28 03:18:24;;;;;;;6.30;5.20;;;;;;;4.91;84.05;98297.13;4953428;28;20282;-79
2021/01/28 03:20:52;;;;;;;6.32;4.82;;;;;;;5.04;84.15;98298.16;4962687;28;20231;-79
2021/01/28 03:23:38;;;;;;;6.15;4.60;;;;;;;5.17;83.25;98304.50;4948158;28;20235;-79
2021/01/28 03:26:30;;;;;;;5.45;4.63;;;;;;;5.11;82.90;98298.66;4952613;28;20286;-80
2021/01/28 03:28:56;;;;;;;4.20;3.80;;;;;;;5.12;82.80;98287.91;4952681;29;20222;-79
2021/01/28 03:31:23;;;;;;;4.22;3.58;;;;;;;4.89;84.18;98280.34;4957853;28;20462;-80
2021/01/28 03:33:50;;;;;;;4.35;3.75;;;;;;;4.93;84.22;98279.25;4945246;28;20227;-80
2021/01/28 03:36:18;;;;;;;4.38;3.97;;;;;;;5.06;84.10;98269.63;4936508;28;20247;-79
2021/01/28 03:38:49;;;;;;;4.00;3.60;;;;;;;5.01;84.49;98261.03;4942700;28;20224;-79
2021/01/28 03:41:16;;;;;;;4.28;3.78;;;;;;;5.14;83.89;98261.19;4938913;29;20199;-79
2021/01/28 03:43:42;;;;;;;4.45;3.97;;;;;;;4.94;84.79;98257.00;4951272;28;20296;-79
2021/01/28 03:46:11;;;;;;;3.67;3.30;;;;;;;4.86;85.14;98245.94;4933430;28;20233;-80
2021/01/28 03:48:47;;;;;;;4.28;3.58;;;;;;;4.86;85.60;98239.72;4952286;28;20270;-79
2021/01/28 03:51:29;;;;;;;5.30;3.05;;;;;;;5.05;84.90;98235.06;4933199;28;20315;-80
2021/01/28 03:54:14;;;;;;;3.95;3.55;;;;;;;4.90;84.60;98226.19;4951300;28;20235;-80
2021/01/28 03:56:46;;;;;;;3.42;3.10;;;;;;;4.85;84.97;98228.25;4948549;28;20296;-79
2021/01/28 03:59:13;;;;;;;3.90;3.15;;;;;;;5.04;84.84;98222.69;4966659;28;20204;-79
2021/01/28 04:01:59;;;;;;;3.63;3.10;;;;;;;4.91;85.11;98211.91;4927949;28;20223;-80
2021/01/28 04:04:51;;;;;;;3.20;2.90;;;;;;;5.14;84.06;98203.41;4943456;29;20235;-79
2021/01/28 04:07:37;;;;;;;2.42;2.22;;;;;;;5.08;84.19;98208.25;4955893;28;20233;-80
2021/01/28 04:10:10;;;;;;;2.40;2.20;;;;;;;4.89;85.53;98199.63;4947290;28;20228;-79
2021/01/28 04:12:38;;;;;;;2.20;2.00;;;;;;;4.91;85.11;98195.94;4932802;28;20228;-79
2021/01/28 04:15:37;;;;;;;2.63;2.42;;;;;;;4.92;85.75;98192.31;4952639;28;20615;-79
2021/01/28 04:18:06;;;;;;;2.92;2.25;;;;;;;4.96;85.45;98188.53;4941945;28;20254;-79
2021/01/28 04:20:43;;;;;;;2.95;2.72;;;;;;;4.93;85.86;98179.88;4970819;28;21126;-79
2021/01/28 04:23:13;;;;;;;2.40;2.13;;;;;;;4.86;85.99;98168.69;4942683;29;20200;-79
2021/01/28 04:26:02;;;;;;;2.13;1.95;;;;;;;4.79;86.32;98161.13;4946297;28;20319;-79
2021/01/28 04:28:30;;;;;;;2.47;2.00;;;;;;;4.66;87.17;98147.69;4955830;28;20215;-79
2021/01/28 04:31:10;;;;;;;2.60;2.20;;;;;;;4.86;86.71;98143.84;4944802;28;20254;-79
2021/01/28 04:33:37;;;;;;;3.10;2.45;;;;;;;4.86;86.53;98138.53;4947057;28;20611;-79
2021/01/28 04:36:18;;;;;;;2.10;1.90;;;;;;;4.80;86.61;98139.75;4940605;28;20239;-79
2021/01/28 04:39:05;;;;;;;2.85;2.30;;;;;;;4.75;87.24;98136.50;4958035;28;20232;-79
2021/01/28 04:41:35;;;;;;;2.22;2.03;;;;;;;4.72;87.32;98135.81;4955344;28;20201;-79
2021/01/28 04:44:07;;;;;;;2.22;2.03;;;;;;;4.70;87.88;98129.72;4969637;28;20202;-79
2021/01/28 04:46:56;;;;;;;2.13;1.90;;;;;;;4.67;88.49;98117.44;4940505;29;20236;-79
2021/01/28 04:49:52;;;;;;;2.13;1.90;;;;;;;4.60;88.95;98102.78;4949069;29;20239;-79
2021/01/28 04:52:38;;;;;;;2.00;1.80;;;;;;;4.61;88.87;98107.16;4953156;28;20232;-79
2021/01/28 04:55:37;;;;;;;2.30;1.80;;;;;;;4.60;89.18;98094.78;4945799;29;20232;-79
2021/01/28 04:58:04;;;;;;;2.05;1.85;;;;;;;4.61;89.02;98088.53;4952542;28;20232;-78
2021/01/28 05:00:39;;;;;;;2.50;1.90;;;;;;;4.68;89.10;98081.06;4945635;28;20230;-79
2021/01/28 05:03:23;;;;;;;1.80;1.70;;;;;;;4.78;88.56;98083.06;4944275;28;20299;-79
2021/01/28 05:06:15;;;;;;;2.30;1.90;;;;;;;4.82;88.50;98076.59;4957112;29;20234;-79
2021/01/28 05:09:20;;;;;;;2.30;2.10;;;;;;;4.82;88.05;98060.63;4948283;29;20231;-79
2021/01/28 05:12:21;;;;;;;2.30;1.80;;;;;;;4.89;88.43;98050.47;4943630;29;20259;-78
2021/01/28 05:15:19;;;;;;;2.47;1.60;;;;;;;4.98;87.03;98044.59;4964727;28;20232;-81
2021/01/28 05:18:10;;;;;;;2.40;2.00;;;;;;;4.93;87.40;98028.88;4959839;28;20218;-79
2021/01/28 05:21:06;;;;;;;2.20;1.65;;;;;;;4.94;87.15;98024.44;4969981;28;20224;-79
2021/01/28 05:23:35;;;;;;;1.80;1.60;;;;;;;4.88;87.49;98014.97;4972131;28;20199;-79
2021/01/28 05:26:06;;;;;;;2.05;1.85;;;;;;;4.80;88.59;98011.94;4954913;28;20212;-79
2021/01/28 05:28:47;;;;;;;1.40;1.25;;;;;;;5.00;87.98;98013.41;4964912;28;20275;-79
2021/01/28 05:31:29;;;;;;;1.80;1.67;;;;;;;4.83;88.67;98005.56;4961414;28;20605;-78
2021/01/28 05:34:25;;;;;;;1.90;1.65;;;;;;;5.07;88.52;97982.78;4949821;28;20235;-79
2021/01/28 05:37:16;;;;;;;1.90;1.80;;;;;;;5.09;87.51;97981.72;4948450;28;20283;-79
2021/01/28 05:40:13;;;;;;;2.22;1.90;;;;;;;5.09;87.60;97971.06;4948819;28;20623;-79
2021/01/28 05:42:46;;;;;;;2.00;1.80;;;;;;;5.03;87.97;97973.25;4961107;28;20306;-79
2021/01/28 05:45:31;;;;;;;1.90;1.80;;;;;;;5.04;88.70;97967.84;4978570;28;20214;-80
2021/01/28 05:48:30;;;;;;;2.45;1.70;;;;;;;5.11;88.17;97960.28;4943014;28;20292;-80
2021/01/28 05:51:35;;;;;;;1.50;1.40;;;;;;;5.08;88.21;97953.34;4928310;29;20225;-80
2021/01/28 05:54:06;;;;;;;1.40;1.30;;;;;;;5.11;88.08;97958.50;4933988;28;20596;-80
2021/01/28 05:56:54;;;;;;;2.00;1.80;;;;;;;5.05;88.24;97950.88;4920974;28;20580;-80
2021/01/28 06:00:01;;;;;;;2.20;2.00;;;;;;;5.04;88.80;97942.97;4950238;28;20677;-80
2021/01/28 06:02:52;;;;;;;2.05;1.83;;;;;;;4.96;89.04;97937.28;4932927;28;20223;-80
2021/01/28 06:05:59;;;;;;;1.80;1.52;;;;;;;5.13;88.19;97929.09;4942323;28;20235;-80
2021/01/28 06:09:11;;;;;;;1.80;1.38;;;;;;;5.18;87.66;97919.88;4948763;29;20295;-80
2021/01/28 06:11:57;;;;;;;1.80;1.70;;;;;;;5.11;88.98;97920.34;4939381;28;20212;-79
2021/01/28 06:14:42;;;;;;;2.25;2.05;;;;;;;5.32;88.96;97906.50;4966423;28;20226;-81
2021/01/28 06:18:03;;;;;;;4.57;1.95;;;;;;;5.20;88.75;97907.28;4986047;28;20214;-79
2021/01/28 06:21:17;;;;;;;2.10;1.83;;;;;;;5.30;88.62;97911.09;4961196;29;20228;-80
2021/01/28 06:24:35;;;;;;;1.80;1.70;;;;;;;5.41;87.90;97905.94;4964702;28;20259;-80
2021/01/28 06:27:17;;;;;;;2.88;2.05;;;;;;;5.37;88.88;97890.22;4939523;28;20218;-80
2021/01/28 06:30:21;;;;;;;1.60;1.50;;;;;;;5.34;88.22;97891.31;4952655;28;20228;-80
2021/01/28 06:33:30;;;;;;;2.00;1.80;;;;;;;5.34;88.59;97885.09;4928422;29;20258;-80
2021/01/28 06:37:11;;;;;;;4.28;2.95;;;;;;;5.17;89.23;97882.66;4939652;28;20242;-80
2021/01/28 06:40:14;;;;;;;2.38;2.05;;;;;;;5.29;89.09;97885.41;4943777;28;20352;-80
2021/01/28 06:43:11;;;;;;;2.45;2.25;;;;;;;5.20;89.70;97872.66;4965501;28;20331;-82
2021/01/28 06:46:01;;;;;;;2.63;2.22;;;;;;;5.18;89.75;97871.91;4955497;28;20208;-80
2021/01/28 06:48:43;;;;;;;2.70;2.10;;;;;;;5.29;90.06;97877.41;4960351;28;20216;-80
2021/01/28 06:51:35;;;;;;;3.88;2.10;;;;;;;5.35;89.78;97860.16;4931994;28;20225;-80
2021/01/28 06:54:26;;;;;;;3.80;2.30;;;;;;;5.40;89.48;97868.72;4940726;28;20236;-80
2021/01/28 06:57:25;;;;;;;2.00;1.80;;;;;;;5.30;90.74;97857.78;4962724;28;20227;-80
2021/01/28 07:00:09;;;;;;;2.38;2.28;;;;;;;5.29;89.87;97845.44;4937082;28;20224;-80
2021/01/28 07:02:41;;;;;;;2.10;1.90;;;;;;;5.38;89.69;97851.97;4938585;28;20572;-80
2021/01/28 07:06:04;;;;;;;2.55;2.25;;;;;;;5.21;90.71;97847.72;4935151;28;20226;-80
2021/01/28 07:08:56;;;;;;;2.20;2.00;;;;;;;5.37;90.52;97831.59;4922775;29;20241;-81
2021/01/28 07:11:43;;;;;;;3.15;2.30;;;;;;;5.16;91.48;97825.88;4900237;28;20196;-80
2021/01/28 07:14:23;;;;;;;2.28;2.03;;;;;;;5.17;91.85;97816.91;4937296;29;20612;-80
2021/01/28 07:17:36;;;;;;;2.03;1.60;;;;;;;5.27;91.17;97810.00;4958007;28;20291;-80
2021/01/28 07:20:06;;;;;;;1.80;1.70;;;;;;;5.34;91.15;97806.03;4937189;29;20319;-81
2021/01/28 07:22:40;;;;;;;2.10;1.85;;;;;;;5.34;90.39;97794.50;4939248;28;20211;-80
2021/01/28 07:25:30;;;;;;;3.38;3.08;;;;;;;5.21;91.92;97788.25;4956152;28;20314;-80
2021/01/28 07:27:59;;;;;;;2.17;1.98;;;;;;;5.23;92.41;97789.88;4945640;28;20231;-79
2021/01/28 07:30:42;;;;;;;3.90;3.55;;;;;;;5.24;93.62;97778.25;4943247;28;20220;-79
2021/01/28 07:33:24;;;;;;;3.20;2.80;;;;;;;5.44;92.61;97767.13;4949322;28;20242;-80
2021/01/28 07:36:22;;;;;;;5.75;3.15;;;;;;;5.33;93.49;97764.31;4954216;28;20231;-79
2021/01/28 07:39:46;;;;;;;3.20;2.90;;;;;;;5.20;94.76;97752.75;4963071;28;20223;-80
2021/01/28 07:42:39;;;;;;;2.45;2.25;;;;;;;5.33;92.43;97735.00;4965722;28;20910;-80
2021/01/28 07:45:34;;;;;;;2.67;1.80;;;;;;;5.58;91.66;97736.88;4966502;28;20640;-80
2021/01/28 07:48:30;;;;;;;2.08;1.88;;;;;;;5.67;90.43;97721.13;4939421;28;20226;-80
2021/01/28 07:51:32;;;;;;;1.80;1.70;;;;;;;5.51;91.55;97720.44;4954033;28;20307;-80
2021/01/28 07:54:02;;;;;;;1.98;1.77;;;;;;;5.63;90.39;97716.94;4969239;28;20231;-80
2021/01/28 07:56:43;;;;;;;2.10;1.75;;;;;;;5.79;90.29;97701.63;4969069;28;20203;-80
2021/01/28 07:59:16;;;;;;;2.40;2.20;;;;;;;5.70;91.10;97693.41;4948070;29;20215;-80
2021/01/28 08:01:46;;;;;;;3.40;2.15;;;;;;;5.78;91.66;97684.75;4965409;28;20224;-80
2021/01/28 08:04:30;;;;;;;2.53;2.17;;;;;;;5.82;90.49;97672.09;4948394;28;20227;-81
2021/01/28 08:06:59;;;;;;;1.80;1.70;;;;;;;5.99;91.10;97666.44;4918014;28;20312;-80
2021/01/28 08:09:25;;;;;;;2.40;1.80;;;;;;;5.91;90.57;97665.25;4927212;29;20702;-80
2021/01/28 08:12:10;;;;;;;1.50;1.40;;;;;;;6.11;90.09;97670.91;4941115;28;20291;-80
2021/01/28 08:14:36;;;;;;;1.58;1.48;;;;;;;6.03;90.19;97662.56;4949370;28;20232;-80
2021/01/28 08:17:02;;;;;;;2.10;1.55;;;;;;;5.93;91.04;97655.31;4950576;29;20242;-81
2021/01/28 08:19:29;;;;;;;1.70;1.50;;;;;;;6.10;90.60;97653.16;4937965;28;20702;-81
2021/01/28 08:22:14;;;;;;;2.33;2.13;;;;;;;6.10;90.55;97645.16;4953897;28;20255;-81
2021/01/28 08:24:40;;;;;;;1.90;1.70;;;;;;;6.07;90.27;97632.06;4966445;28;20621;-80
2021/01/28 08:27:18;;;;;;;2.53;2.00;;;;;;;6.05;90.65;97636.66;4931732;28;20320;-82
2021/01/28 08:29:59;;;;;;;2.55;2.00;;;;;;;5.88;91.78;97620.97;4945035;28;20235;-81
2021/01/28 08:32:29;;;;;;;2.30;1.80;;;;;;;6.03;90.74;97622.53;4956978;28;20203;-81
2021/01/28 08:35:01;;;;;;;2.17;1.80;;;;;;;5.91;90.57;97612.75;4949060;29;20232;-82
2021/01/28 08:37:29;;;;;;;3.50;2.60;;;;;;;5.86;92.03;97614.91;4942967;28;20224;-81
2021/01/28 08:40:00;;;;;;;2.80;2.35;;;;;;;5.92;91.36;97603.81;4947205;28;20260;-79
2021/01/28 08:42:28;;;;;;;2.70;1.92;;;;;;;5.93;90.99;97597.50;4939007;28;20231;-81
2021/01/28 08:45:25;;;;;;;3.55;2.88;;;;;;;5.96;91.13;97615.94;4912870;28;20228;-81
2021/01/28 08:48:01;;;;;;;2.60;2.10;;;;;;;5.96;92.19;97612.44;4917328;28;20228;-81
2021/01/28 08:50:29;;;;;;;5.30;3.60;;;;;;;5.93;91.69;97613.50;4951389;28;20208;-81
2021/01/28 08:53:02;;;;;;;5.63;4.03;;;;;;;6.07;92.39;97608.91;4933538;28;20224;-81
2021/01/28 08:55:34;;;;;;;5.97;2.83;;;;;;;6.19;91.44;97609.84;4941366;28;20279;-80
2021/01/28 08:58:32;;;;;;;3.15;2.30;;;;;;;6.21;91.10;97614.09;4938962;28;20223;-81
2021/01/28 09:01:05;;;;;;;2.30;2.10;;;;;;;6.09;91.61;97604.31;4943745;28;20318;-81
2021/01/28 09:03:39;;;;;;;3.67;2.50;;;;;;;6.10;92.57;97602.47;4950543;28;20220;-81
2021/01/28 09:06:05;;;;;;;2.88;2.30;;;;;;;6.19;92.08;97615.16;4933824;28;20240;-80
2021/01/28 09:08:36;;;;;;;2.30;1.92;;;;;;;6.19;92.37;97599.16;4938368;28;20201;-81
2021/01/28 09:11:28;;;;;;;2.67;2.20;;;;;;;6.21;91.88;97599.88;4928582;29;20606;-82
2021/01/28 09:14:01;;;;;;;2.75;2.42;;;;;;;6.14;92.31;97601.28;4939311;28;20231;-81
2021/01/28 09:16:27;;;;;;;2.00;1.80;;;;;;;6.26;92.74;97593.25;4948667;28;20235;-81
2021/01/28 09:18:54;;;;;;;2.30;2.10;;;;;;;6.25;92.11;97594.22;4953846;28;20234;-80
2021/01/28 09:21:23;;;;;;;2.22;2.00;;;;;;;6.29;92.36;97592.16;4953929;28;20484;-79
2021/01/28 09:24:01;;;;;;;2.38;2.17;;;;;;;6.36;92.50;97607.63;4929972;28;20228;-81
2021/01/28 09:26:31;;;;;;;3.08;2.05;;;;;;;6.33;92.57;97612.34;4926698;28;20232;-79
2021/01/28 09:29:22;;;;;;;3.03;1.95;;;;;;;6.39;92.73;97601.22;4953547;28;20196;-80
2021/01/28 09:32:29;;;;;;;2.90;2.13;;;;;;;6.45;92.84;97592.78;4955367;29;20224;-80
2021/01/28 09:35:23;;;;;;;1.90;1.60;;;;;;;6.48;93.23;97587.19;4955791;28;20307;-80
2021/01/28 09:38:12;;;;;;;2.50;2.20;;;;;;;6.48;92.88;97589.84;4954977;29;20586;-79
2021/01/28 09:40:42;;;;;;;5.70;3.15;;;;;;;6.56;93.03;97582.16;4962599;28;20232;-80
2021/01/28 09:43:31;;;;;;;4.78;3.78;;;;;;;6.67;92.74;97582.19;4967661;28;20228;-84
2021/01/28 09:46:25;;;;;;;7.50;2.88;;;;;;;6.73;92.63;97595.97;4954652;28;20716;-83
2021/01/28 09:48:55;;;;;;;4.97;3.00;;;;;;;6.71;92.35;97583.69;4933621;29;20239;-86
2021/01/28 09:51:32;;;;;;;2.90;2.53;;;;;;;6.75;92.63;97575.31;4960678;28;20215;-83
2021/01/28 09:54:12;;;;;;;4.93;2.85;;;;;;;6.85;92.33;97572.81;4967098;28;20242;-84
2021/01/28 09:56:41;;;;;;;3.80;3.45;;;;;;;6.91;92.97;97577.69;4937160;28;20215;-84
2021/01/28 09:59:08;;;;;;;3.65;3.13;;;;;;;6.94;91.89;97578.31;4952927;28;20186;-84
2021/01/28 10:01:34;;;;;;;3.55;2.42;;;;;;;7.00;91.98;97582.31;4977208;28;20275;-83
2021/01/28 10:04:00;;;;;;;3.42;2.65;;;;;;;7.02;92.10;97575.06;4957293;28;20243;-84
2021/01/28 10:06:28;;;;;;;2.30;1.85;;;;;;;6.98;92.24;97573.59;4942640;28;20315;-80
2021/01/28 10:08:54;;;;;;;2.70;2.50;;;;;;;7.06;92.34;97561.34;4937302;28;20220;-81
2021/01/28 10:11:20;;;;;;;3.40;2.70;;;;;;;7.15;92.76;97554.47;4948495;28;20452;-81
2021/01/28 10:13:48;;;;;;;2.83;2.53;;;;;;;7.18;92.69;97544.38;4962056;28;20259;-81
2021/01/28 10:16:18;;;;;;;2.13;1.92;;;;;;;7.19;93.06;97526.50;4929662;28;20327;-82
2021/01/28 10:18:48;;;;;;;2.65;2.45;;;;;;;7.19;93.81;97495.28;4938798;28;20630;-81
2021/01/28 10:21:42;;;;;;;3.22;2.40;;;;;;;7.40;93.46;97460.69;4943006;28;20234;-82
2021/01/28 10:24:08;;;;;;;4.03;2.00;;;;;;;7.50;93.24;97445.59;4931592;28;20259;-82
2021/01/28 10:26:34;;;;;;;2.92;2.40;;;;;;;7.69;92.51;97448.50;4950749;28;20205;-83
2021/01/28 10:29:00;;;;;;;2.67;1.92;;;;;;;7.74;92.42;97430.25;4947303;28;20222;-83
2021/01/28 10:31:26;;;;;;;2.03;1.50;;;;;;;7.86;91.66;97435.44;4946088;28;20228;-83
2021/01/28 10:33:56;;;;;;;2.40;1.67;;;;;;;7.89;91.32;97453.09;4954460;28;20307;-83
2021/01/28 10:36:22;;;;;;;2.00;1.50;;;;;;;7.83;91.58;97465.16;4943080;28;20236;-82
2021/01/28 10:38:48;;;;;;;2.10;1.90;;;;;;;7.83;92.14;97462.47;4935488;28;20229;-82
2021/01/28 10:41:17;;;;;;;2.00;1.70;;;;;;;7.87;91.87;97474.63;4924595;29;20224;-84
2021/01/28 10:43:43;;;;;;;2.47;1.77;;;;;;;7.85;92.03;97479.25;4935872;28;20228;-83
2021/01/28 10:46:10;;;;;;;1.30;1.20;;;;;;;7.82;91.99;97475.97;4930801;29;20232;-83
2021/01/28 10:48:39;;;;;;;1.40;1.17;;;;;;;7.82;92.43;97442.03;4945514;28;20244;-82
2021/01/28 10:51:05;;;;;;;1.60;1.50;;;;;;;7.91;92.46;97459.19;4936924;28;20258;-84
2021/01/28 10:53:34;;;;;;;2.17;1.60;;;;;;;8.02;92.52;97459.13;4950800;28;20302;-83
2021/01/28 10:56:00;;;;;;;3.72;3.10;;;;;;;8.04;92.74;97451.84;4950439;28;20283;-82
2021/01/28 10:58:27;;;;;;;2.40;2.03;;;;;;;8.16;92.62;97454.34;4973097;28;20295;-81
2021/01/28 11:00:54;;;;;;;2.40;1.90;;;;;;;8.30;92.63;97437.19;4967557;28;20228;-81
2021/01/28 11:03:20;;;;;;;2.40;1.50;;;;;;;8.34;92.64;97436.81;4947450;28;20232;-80
2021/01/28 11:05:49;;;;;;;1.58;1.48;;;;;;;8.36;92.85;97434.00;4950015;28;20264;-81
2021/01/28 11:08:15;;;;;;;2.13;1.70;;;;;;;8.40;92.89;97425.59;4948826;29;20197;-81
2021/01/28 11:10:41;;;;;;;1.35;1.20;;;;;;;8.41;93.64;97424.59;4934603;28;20228;-80
2021/01/28 11:13:08;;;;;;;1.88;1.67;;;;;;;8.49;93.45;97424.81;4951499;28;20793;-80
2021/01/28 11:15:37;;;;;;;2.05;1.83;;;;;;;8.54;93.68;97425.28;4923342;28;20256;-81
2021/01/28 11:18:05;;;;;;;2.97;2.10;;;;;;;8.63;93.76;97418.28;4967814;28;20272;-81
2021/01/28 11:20:32;;;;;;;2.08;1.88;;;;;;;8.70;93.52;97417.66;4923927;28;20211;-81
2021/01/28 11:22:59;;;;;;;2.22;1.50;;;;;;;8.76;93.15;97421.63;4937540;29;20204;-81
2021/01/28 11:25:26;;;;;;;2.10;1.90;;;;;;;8.81;93.14;97414.06;4937088;28;20242;-81
2021/01/28 11:27:53;;;;;;;2.55;1.70;;;;;;;8.87;93.07;97414.34;4934114;28;20231;-80
2021/01/28 11:30:23;;;;;;;4.05;1.90;;;;;;;8.96;92.94;97412.72;4915159;28;20228;-81
2021/01/28 11:32:50;;;;;;;2.00;1.80;;;;;;;9.02;92.62;97410.38;4913827;28;20236;-82
2021/01/28 11:35:21;;;;;;;3.30;2.22;;;;;;;9.07;92.75;97402.75;4934316;29;20229;-83
2021/01/28 11:37:49;;;;;;;2.63;2.05;;;;;;;9.17;92.85;97401.00;4949923;29;20311;-82
2021/01/28 11:40:18;;;;;;;1.80;1.52;;;;;;;9.22;92.67;97395.22;4940331;29;20224;-81
2021/01/28 11:42:46;;;;;;;3.15;1.50;;;;;;;9.24;92.81;97401.28;4926218;28;20231;-82
2021/01/28 11:45:20;;;;;;;1.60;1.50;;;;;;;9.26;93.03;97393.97;4935323;28;20308;-83
2021/01/28 11:47:48;;;;;;;5.00;4.10;;;;;;;9.30;92.99;97395.38;4925236;28;20255;-82
2021/01/28 11:50:17;;;;;;;1.92;1.45;;;;;;;9.32;93.50;97393.44;4939774;29;20196;-82
2021/01/28 11:52:44;;;;;;;2.15;1.92;;;;;;;9.34;93.40;97386.97;4968421;28;20279;-83
2021/01/28 11:55:14;;;;;;;1.60;1.50;;;;;;;9.40;93.61;97388.25;4956871;28;20306;-81
2021/01/28 11:57:40;;;;;;;2.60;1.65;;;;;;;9.49;93.42;97376.69;4932560;28;20240;-83
2021/01/28 12:00:09;;;;;;;2.33;1.35;;;;;;;9.53;92.97;97380.81;4933277;28;20272;-82
2021/01/28 12:02:44;;;;;;;1.40;1.30;;;;;;;9.55;92.88;97378.81;4929630;28;20275;-80
2021/01/28 12:05:13;;;;;;;1.42;1.33;;;;;;;9.63;93.28;97374.47;4956719;28;20243;-79
2021/01/28 12:07:39;;;;;;;2.90;2.00;;;;;;;9.71;93.29;97373.81;4939690;28;20236;-80
2021/01/28 12:10:08;;;;;;;2.08;1.45;;;;;;;9.75;93.25;97369.84;4947557;28;20247;-81
2021/01/28 12:12:34;;;;;;;1.70;1.60;;;;;;;9.80;93.46;97362.22;4936429;28;20219;-80
2021/01/28 12:15:00;;;;;;;1.50;1.40;;;;;;;9.84;93.85;97375.22;4950400;28;20733;-79
2021/01/28 12:17:27;;;;;;;1.90;1.50;;;;;;;9.84;93.67;97364.50;4937632;28;20196;-79
2021/01/28 12:20:01;;;;;;;2.05;1.50;;;;;;;9.95;93.67;97363.56;4970448;28;20203;-79
2021/01/28 12:22:27;;;;;;;2.15;1.40;;;;;;;9.98;93.86;97360.56;4929553;28;20224;-79
2021/01/28 12:24:53;;;;;;;1.60;1.38;;;;;;;10.06;93.35;97355.38;4954146;28;20246;-79
2021/01/28 12:27:23;;;;;;;1.80;1.60;;;;;;;10.15;93.21;97352.69;4954810;28;20224;-79